sensor_id;sensor_type;location;lat;lon;timestamp;temperature;humidity
25953;DHT22;13750;50.804;8.764;2023-07-31T00:01:59;18.50;67.60
25953;DHT22;13750;50.804;8.764;2023-07-31T00:04:25;18.50;67.60
25953;DHT22;13750;50.804;8.764;2023-07-31T00:06:50;18.50;67.60
25953;DHT22;13750;50.804;8.764;2023-07-31T00:09:16;18.50;67.50
25953;DHT22;13750;50.804;8.764;2023-07-31T00:11:41;18.50;67.50
25953;DHT22;13750;50.804;8.764;2023-07-31T00:14:07;18.50;67.40
25953;DHT22;13750;50.804;8.764;2023-07-31T00:16:33;18.50;67.50
25953;DHT22;13750;50.804;8.764;2023-07-31T00:18:58;18.50;67.40
25953;DHT22;13750;50.804;8.764;2023-07-31T00:21:24;18.50;67.40
25953;DHT22;13750;50.804;8.764;2023-07-31T00:23:49;18.50;67.50
25953;DHT22;13750;50.804;8.764;2023-07-31T00:26:15;18.50;67.50
25953;DHT22;13750;50.804;8.764;2023-07-31T00:28:41;18.50;67.50
25953;DHT22;13750;50.804;8.764;2023-07-31T00:31:06;18.50;67.50
25953;DHT22;13750;50.804;8.764;2023-07-31T00:33:34;18.50;67.50
25953;DHT22;13750;50.804;8.764;2023-07-31T00:35:59;18.50;67.40
25953;DHT22;13750;50.804;8.764;2023-07-31T00:38:25;18.50;67.40
25953;DHT22;13750;50.804;8.764;2023-07-31T00:40:50;18.50;67.30
25953;DHT22;13750;50.804;8.764;2023-07-31T00:43:16;18.50;67.30
25953;DHT22;13750;50.804;8.764;2023-07-31T00:45:41;18.50;67.30
25953;DHT22;13750;50.804;8.764;2023-07-31T00:48:07;18.50;67.40
25953;DHT22;13750;50.804;8.764;2023-07-31T00:50:33;18.50;67.40
25953;DHT22;13750;50.804;8.764;2023-07-31T00:52:59;18.50;67.30
25953;DHT22;13750;50.804;8.764;2023-07-31T00:55:24;18.50;67.30
25953;DHT22;13750;50.804;8.764;2023-07-31T00:57:51;18.50;67.30
25953;DHT22;13750;50.804;8.764;2023-07-31T01:00:18;18.50;67.40
25953;DHT22;13750;50.804;8.764;2023-07-31T01:02:44;18.50;67.40
25953;DHT22;13750;50.804;8.764;2023-07-31T01:05:10;18.50;67.40
25953;DHT22;13750;50.804;8.764;2023-07-31T01:07:45;18.50;67.40
25953;DHT22;13750;50.804;8.764;2023-07-31T01:10:28;18.50;67.50
25953;DHT22;13750;50.804;8.764;2023-07-31T01:12:56;18.50;67.40
25953;DHT22;13750;50.804;8.764;2023-07-31T01:15:23;18.50;67.40
25953;DHT22;13750;50.804;8.764;2023-07-31T01:17:48;18.50;67.50
25953;DHT22;13750;50.804;8.764;2023-07-31T01:20:18;18.50;67.60
25953;DHT22;13750;50.804;8.764;2023-07-31T01:28:38;18.60;67.60
25953;DHT22;13750;50.804;8.764;2023-07-31T01:31:07;18.60;67.50
25953;DHT22;13750;50.804;8.764;2023-07-31T01:33:35;18.60;67.50
25953;DHT22;13750;50.804;8.764;2023-07-31T01:36:01;18.60;67.60
25953;DHT22;13750;50.804;8.764;2023-07-31T01:38:27;18.60;67.70
25953;DHT22;13750;50.804;8.764;2023-07-31T01:40:53;18.60;67.70
25953;DHT22;13750;50.804;8.764;2023-07-31T01:43:19;18.60;67.80
25953;DHT22;13750;50.804;8.764;2023-07-31T01:45:45;18.60;67.80
25953;DHT22;13750;50.804;8.764;2023-07-31T01:48:10;18.60;67.90
25953;DHT22;13750;50.804;8.764;2023-07-31T01:50:36;18.60;68.10
25953;DHT22;13750;50.804;8.764;2023-07-31T01:53:02;18.60;68.10
25953;DHT22;13750;50.804;8.764;2023-07-31T01:55:27;18.50;68.20
25953;DHT22;13750;50.804;8.764;2023-07-31T01:57:53;18.60;68.10
25953;DHT22;13750;50.804;8.764;2023-07-31T02:00:19;18.60;68.10
25953;DHT22;13750;50.804;8.764;2023-07-31T02:02:44;18.60;68.10
25953;DHT22;13750;50.804;8.764;2023-07-31T02:05:10;18.50;68.20
25953;DHT22;13750;50.804;8.764;2023-07-31T02:07:35;18.50;68.30
25953;DHT22;13750;50.804;8.764;2023-07-31T02:10:01;18.50;68.30
25953;DHT22;13750;50.804;8.764;2023-07-31T02:12:27;18.60;68.30
25953;DHT22;13750;50.804;8.764;2023-07-31T02:14:52;18.50;68.40
25953;DHT22;13750;50.804;8.764;2023-07-31T02:17:18;18.50;68.50
25953;DHT22;13750;50.804;8.764;2023-07-31T02:19:43;18.50;68.40
25953;DHT22;13750;50.804;8.764;2023-07-31T02:22:09;18.50;68.40
25953;DHT22;13750;50.804;8.764;2023-07-31T02:24:34;18.50;68.50
25953;DHT22;13750;50.804;8.764;2023-07-31T02:27:00;18.50;68.50
25953;DHT22;13750;50.804;8.764;2023-07-31T02:29:25;18.40;68.70
25953;DHT22;13750;50.804;8.764;2023-07-31T02:31:51;18.40;68.70
25953;DHT22;13750;50.804;8.764;2023-07-31T02:34:16;18.50;68.70
25953;DHT22;13750;50.804;8.764;2023-07-31T02:36:42;18.50;68.70
25953;DHT22;13750;50.804;8.764;2023-07-31T02:39:07;18.40;68.80
25953;DHT22;13750;50.804;8.764;2023-07-31T02:41:33;18.50;68.90
25953;DHT22;13750;50.804;8.764;2023-07-31T02:43:58;18.40;69.00
25953;DHT22;13750;50.804;8.764;2023-07-31T02:46:24;18.40;69.10
25953;DHT22;13750;50.804;8.764;2023-07-31T02:48:50;18.40;69.40
25953;DHT22;13750;50.804;8.764;2023-07-31T02:51:16;18.40;69.80
25953;DHT22;13750;50.804;8.764;2023-07-31T02:53:42;18.40;70.10
25953;DHT22;13750;50.804;8.764;2023-07-31T02:56:07;18.40;70.20
25953;DHT22;13750;50.804;8.764;2023-07-31T02:58:33;18.40;70.40
25953;DHT22;13750;50.804;8.764;2023-07-31T03:00:59;18.30;70.70
25953;DHT22;13750;50.804;8.764;2023-07-31T03:03:24;18.30;71.10
25953;DHT22;13750;50.804;8.764;2023-07-31T03:05:50;18.20;71.50
25953;DHT22;13750;50.804;8.764;2023-07-31T03:08:15;18.20;71.90
25953;DHT22;13750;50.804;8.764;2023-07-31T03:10:41;18.20;72.20
25953;DHT22;13750;50.804;8.764;2023-07-31T03:13:06;18.20;72.60
25953;DHT22;13750;50.804;8.764;2023-07-31T03:15:32;18.20;72.90
25953;DHT22;13750;50.804;8.764;2023-07-31T03:17:58;18.10;73.10
25953;DHT22;13750;50.804;8.764;2023-07-31T03:20:23;18.10;73.30
25953;DHT22;13750;50.804;8.764;2023-07-31T03:22:49;18.10;73.50
25953;DHT22;13750;50.804;8.764;2023-07-31T03:25:14;18.10;73.70
25953;DHT22;13750;50.804;8.764;2023-07-31T03:27:40;18.10;74.10
25953;DHT22;13750;50.804;8.764;2023-07-31T03:30:06;18.00;74.40
25953;DHT22;13750;50.804;8.764;2023-07-31T03:32:32;18.00;74.90
25953;DHT22;13750;50.804;8.764;2023-07-31T03:34:58;18.00;75.20
25953;DHT22;13750;50.804;8.764;2023-07-31T03:37:23;17.90;75.60
25953;DHT22;13750;50.804;8.764;2023-07-31T03:39:49;17.90;75.90
25953;DHT22;13750;50.804;8.764;2023-07-31T03:42:14;17.90;76.10
25953;DHT22;13750;50.804;8.764;2023-07-31T03:44:40;17.90;76.40
25953;DHT22;13750;50.804;8.764;2023-07-31T03:47:06;17.90;76.70
25953;DHT22;13750;50.804;8.764;2023-07-31T03:49:31;17.80;76.90
25953;DHT22;13750;50.804;8.764;2023-07-31T03:51:57;17.80;77.20
25953;DHT22;13750;50.804;8.764;2023-07-31T03:54:22;17.70;77.40
25953;DHT22;13750;50.804;8.764;2023-07-31T03:56:48;17.70;77.70
25953;DHT22;13750;50.804;8.764;2023-07-31T03:59:13;17.70;77.90
25953;DHT22;13750;50.804;8.764;2023-07-31T04:01:39;17.70;78.00
25953;DHT22;13750;50.804;8.764;2023-07-31T04:04:04;17.70;78.10
25953;DHT22;13750;50.804;8.764;2023-07-31T04:06:30;17.70;78.10
25953;DHT22;13750;50.804;8.764;2023-07-31T04:08:56;17.70;77.80
25953;DHT22;13750;50.804;8.764;2023-07-31T04:11:21;17.80;77.70
25953;DHT22;13750;50.804;8.764;2023-07-31T04:13:47;17.70;77.70
25953;DHT22;13750;50.804;8.764;2023-07-31T04:16:12;17.70;77.80
25953;DHT22;13750;50.804;8.764;2023-07-31T04:18:38;17.70;77.90
25953;DHT22;13750;50.804;8.764;2023-07-31T04:21:04;17.70;78.10
25953;DHT22;13750;50.804;8.764;2023-07-31T04:23:29;17.70;78.10
25953;DHT22;13750;50.804;8.764;2023-07-31T04:25:55;17.70;78.20
25953;DHT22;13750;50.804;8.764;2023-07-31T04:28:21;17.60;78.30
25953;DHT22;13750;50.804;8.764;2023-07-31T04:30:47;17.60;78.40
25953;DHT22;13750;50.804;8.764;2023-07-31T04:33:12;17.60;78.50
25953;DHT22;13750;50.804;8.764;2023-07-31T04:35:38;17.60;78.60
25953;DHT22;13750;50.804;8.764;2023-07-31T04:38:03;17.70;78.80
25953;DHT22;13750;50.804;8.764;2023-07-31T04:40:29;17.60;78.80
25953;DHT22;13750;50.804;8.764;2023-07-31T04:42:54;17.60;78.90
25953;DHT22;13750;50.804;8.764;2023-07-31T04:45:20;17.60;78.80
25953;DHT22;13750;50.804;8.764;2023-07-31T04:47:46;17.70;78.80
25953;DHT22;13750;50.804;8.764;2023-07-31T04:50:11;17.60;78.80
25953;DHT22;13750;50.804;8.764;2023-07-31T04:52:37;17.60;78.90
25953;DHT22;13750;50.804;8.764;2023-07-31T04:55:02;17.60;78.90
25953;DHT22;13750;50.804;8.764;2023-07-31T04:57:28;17.60;79.10
25953;DHT22;13750;50.804;8.764;2023-07-31T04:59:54;17.60;79.20
25953;DHT22;13750;50.804;8.764;2023-07-31T05:02:19;17.60;79.20
25953;DHT22;13750;50.804;8.764;2023-07-31T05:04:45;17.60;79.40
25953;DHT22;13750;50.804;8.764;2023-07-31T05:07:10;17.60;79.40
25953;DHT22;13750;50.804;8.764;2023-07-31T05:09:36;17.60;79.40
25953;DHT22;13750;50.804;8.764;2023-07-31T05:12:02;17.60;79.50
25953;DHT22;13750;50.804;8.764;2023-07-31T05:14:27;17.60;79.60
25953;DHT22;13750;50.804;8.764;2023-07-31T05:16:53;17.60;79.60
25953;DHT22;13750;50.804;8.764;2023-07-31T05:19:18;17.60;79.30
25953;DHT22;13750;50.804;8.764;2023-07-31T05:21:44;17.70;79.10
25953;DHT22;13750;50.804;8.764;2023-07-31T05:24:10;17.70;78.80
25953;DHT22;13750;50.804;8.764;2023-07-31T05:26:36;17.70;78.40
25953;DHT22;13750;50.804;8.764;2023-07-31T05:29:01;17.70;78.00
25953;DHT22;13750;50.804;8.764;2023-07-31T05:31:27;17.80;77.90
25953;DHT22;13750;50.804;8.764;2023-07-31T05:33:53;17.80;77.80
25953;DHT22;13750;50.804;8.764;2023-07-31T05:36:19;17.90;77.70
25953;DHT22;13750;50.804;8.764;2023-07-31T05:38:44;17.80;77.60
25953;DHT22;13750;50.804;8.764;2023-07-31T05:41:11;17.90;77.40
25953;DHT22;13750;50.804;8.764;2023-07-31T05:43:41;17.90;77.20
25953;DHT22;13750;50.804;8.764;2023-07-31T05:46:08;17.90;77.00
25953;DHT22;13750;50.804;8.764;2023-07-31T05:48:34;17.90;76.80
25953;DHT22;13750;50.804;8.764;2023-07-31T05:51:00;17.90;76.70
25953;DHT22;13750;50.804;8.764;2023-07-31T05:53:25;17.90;76.50
25953;DHT22;13750;50.804;8.764;2023-07-31T05:55:51;18.00;76.50
25953;DHT22;13750;50.804;8.764;2023-07-31T05:58:17;18.00;76.50
25953;DHT22;13750;50.804;8.764;2023-07-31T06:00:42;18.10;76.30
25953;DHT22;13750;50.804;8.764;2023-07-31T06:03:08;18.10;76.10
25953;DHT22;13750;50.804;8.764;2023-07-31T06:05:33;18.10;76.00
25953;DHT22;13750;50.804;8.764;2023-07-31T06:07:59;18.10;75.90
25953;DHT22;13750;50.804;8.764;2023-07-31T06:10:24;18.10;75.80
25953;DHT22;13750;50.804;8.764;2023-07-31T06:12:50;18.10;75.80
25953;DHT22;13750;50.804;8.764;2023-07-31T06:15:15;18.20;75.80
25953;DHT22;13750;50.804;8.764;2023-07-31T06:17:41;18.20;75.70
25953;DHT22;13750;50.804;8.764;2023-07-31T06:20:08;18.20;75.50
25953;DHT22;13750;50.804;8.764;2023-07-31T06:22:33;18.30;75.40
25953;DHT22;13750;50.804;8.764;2023-07-31T06:24:59;18.30;75.30
25953;DHT22;13750;50.804;8.764;2023-07-31T06:27:25;18.30;75.30
25953;DHT22;13750;50.804;8.764;2023-07-31T06:29:50;18.30;75.40
25953;DHT22;13750;50.804;8.764;2023-07-31T06:32:16;18.30;75.50
25953;DHT22;13750;50.804;8.764;2023-07-31T06:34:41;18.30;75.40
25953;DHT22;13750;50.804;8.764;2023-07-31T06:37:07;18.30;75.50
25953;DHT22;13750;50.804;8.764;2023-07-31T06:39:33;18.30;75.50
25953;DHT22;13750;50.804;8.764;2023-07-31T06:41:58;18.30;75.50
25953;DHT22;13750;50.804;8.764;2023-07-31T06:44:24;18.30;75.60
25953;DHT22;13750;50.804;8.764;2023-07-31T06:46:49;18.30;75.50
25953;DHT22;13750;50.804;8.764;2023-07-31T06:49:15;18.40;75.60
25953;DHT22;13750;50.804;8.764;2023-07-31T06:51:41;18.40;75.50
25953;DHT22;13750;50.804;8.764;2023-07-31T06:54:08;18.40;75.50
25953;DHT22;13750;50.804;8.764;2023-07-31T06:56:33;18.40;75.70
25953;DHT22;13750;50.804;8.764;2023-07-31T06:58:59;18.40;75.80
25953;DHT22;13750;50.804;8.764;2023-07-31T07:01:25;18.50;75.80
25953;DHT22;13750;50.804;8.764;2023-07-31T07:03:51;18.50;75.80
25953;DHT22;13750;50.804;8.764;2023-07-31T07:06:17;18.60;75.80
25953;DHT22;13750;50.804;8.764;2023-07-31T07:08:43;18.60;75.50
25953;DHT22;13750;50.804;8.764;2023-07-31T07:11:09;18.70;75.40
25953;DHT22;13750;50.804;8.764;2023-07-31T07:13:34;18.80;75.20
25953;DHT22;13750;50.804;8.764;2023-07-31T07:16:00;18.80;75.10
25953;DHT22;13750;50.804;8.764;2023-07-31T07:18:26;18.80;74.90
25953;DHT22;13750;50.804;8.764;2023-07-31T07:20:52;18.80;74.90
25953;DHT22;13750;50.804;8.764;2023-07-31T07:23:19;18.90;74.80
25953;DHT22;13750;50.804;8.764;2023-07-31T07:25:45;18.80;74.90
25953;DHT22;13750;50.804;8.764;2023-07-31T07:28:12;18.90;74.90
25953;DHT22;13750;50.804;8.764;2023-07-31T07:30:37;18.90;74.80
25953;DHT22;13750;50.804;8.764;2023-07-31T07:33:03;18.90;74.80
25953;DHT22;13750;50.804;8.764;2023-07-31T07:35:29;19.00;74.70
25953;DHT22;13750;50.804;8.764;2023-07-31T07:37:54;18.90;74.70
25953;DHT22;13750;50.804;8.764;2023-07-31T07:40:21;19.00;74.60
25953;DHT22;13750;50.804;8.764;2023-07-31T07:42:46;19.00;74.40
25953;DHT22;13750;50.804;8.764;2023-07-31T07:45:12;18.90;74.40
25953;DHT22;13750;50.804;8.764;2023-07-31T07:47:40;18.90;74.40
25953;DHT22;13750;50.804;8.764;2023-07-31T07:50:06;18.90;74.30
25953;DHT22;13750;50.804;8.764;2023-07-31T07:52:32;18.90;74.30
25953;DHT22;13750;50.804;8.764;2023-07-31T07:54:58;18.90;74.30
25953;DHT22;13750;50.804;8.764;2023-07-31T07:57:23;18.90;74.30
25953;DHT22;13750;50.804;8.764;2023-07-31T07:59:49;18.90;74.40
25953;DHT22;13750;50.804;8.764;2023-07-31T08:02:14;18.90;74.50
25953;DHT22;13750;50.804;8.764;2023-07-31T08:04:40;18.90;74.50
25953;DHT22;13750;50.804;8.764;2023-07-31T08:07:05;18.90;74.60
25953;DHT22;13750;50.804;8.764;2023-07-31T08:09:31;18.90;74.50
25953;DHT22;13750;50.804;8.764;2023-07-31T08:11:56;18.90;74.50
25953;DHT22;13750;50.804;8.764;2023-07-31T08:14:27;19.00;74.60
25953;DHT22;13750;50.804;8.764;2023-07-31T08:16:53;19.10;74.60
25953;DHT22;13750;50.804;8.764;2023-07-31T08:19:18;19.10;74.60
25953;DHT22;13750;50.804;8.764;2023-07-31T08:21:44;19.10;74.80
25953;DHT22;13750;50.804;8.764;2023-07-31T08:24:09;19.20;74.70
25953;DHT22;13750;50.804;8.764;2023-07-31T08:26:35;19.20;74.70
25953;DHT22;13750;50.804;8.764;2023-07-31T08:29:00;19.30;74.60
25953;DHT22;13750;50.804;8.764;2023-07-31T08:31:26;19.40;74.80
25953;DHT22;13750;50.804;8.764;2023-07-31T08:33:52;19.40;74.70
25953;DHT22;13750;50.804;8.764;2023-07-31T08:36:18;19.50;74.60
25953;DHT22;13750;50.804;8.764;2023-07-31T08:38:45;19.50;74.30
25953;DHT22;13750;50.804;8.764;2023-07-31T08:41:10;19.60;74.20
25953;DHT22;13750;50.804;8.764;2023-07-31T08:43:37;19.60;74.00
25953;DHT22;13750;50.804;8.764;2023-07-31T08:46:03;19.60;74.00
25953;DHT22;13750;50.804;8.764;2023-07-31T08:48:31;19.60;74.10
25953;DHT22;13750;50.804;8.764;2023-07-31T08:50:57;19.70;74.10
25953;DHT22;13750;50.804;8.764;2023-07-31T08:53:22;19.70;73.90
25953;DHT22;13750;50.804;8.764;2023-07-31T08:55:49;19.80;73.70
25953;DHT22;13750;50.804;8.764;2023-07-31T08:58:15;19.80;73.30
25953;DHT22;13750;50.804;8.764;2023-07-31T09:00:42;19.80;73.10
25953;DHT22;13750;50.804;8.764;2023-07-31T09:03:16;19.80;72.80
25953;DHT22;13750;50.804;8.764;2023-07-31T09:05:44;19.70;72.70
25953;DHT22;13750;50.804;8.764;2023-07-31T09:08:11;19.70;72.60
25953;DHT22;13750;50.804;8.764;2023-07-31T09:10:44;19.70;72.50
25953;DHT22;13750;50.804;8.764;2023-07-31T09:13:12;19.60;72.40
25953;DHT22;13750;50.804;8.764;2023-07-31T09:15:37;19.60;72.40
25953;DHT22;13750;50.804;8.764;2023-07-31T09:18:05;19.60;72.40
25953;DHT22;13750;50.804;8.764;2023-07-31T09:20:31;19.60;72.40
25953;DHT22;13750;50.804;8.764;2023-07-31T09:23:10;19.60;72.10
25953;DHT22;13750;50.804;8.764;2023-07-31T09:25:36;19.60;71.90
25953;DHT22;13750;50.804;8.764;2023-07-31T09:28:07;19.60;72.00
25953;DHT22;13750;50.804;8.764;2023-07-31T09:30:48;19.60;72.00
25953;DHT22;13750;50.804;8.764;2023-07-31T09:33:14;19.70;71.90
25953;DHT22;13750;50.804;8.764;2023-07-31T09:35:41;19.70;71.90
25953;DHT22;13750;50.804;8.764;2023-07-31T09:38:11;19.80;71.70
25953;DHT22;13750;50.804;8.764;2023-07-31T09:40:41;19.90;71.40
25953;DHT22;13750;50.804;8.764;2023-07-31T09:43:09;19.90;71.30
25953;DHT22;13750;50.804;8.764;2023-07-31T09:45:37;19.90;71.20
25953;DHT22;13750;50.804;8.764;2023-07-31T09:48:05;19.90;71.20
25953;DHT22;13750;50.804;8.764;2023-07-31T09:50:31;20.00;71.10
25953;DHT22;13750;50.804;8.764;2023-07-31T09:52:57;19.90;71.00
25953;DHT22;13750;50.804;8.764;2023-07-31T09:55:24;19.90;70.80
25953;DHT22;13750;50.804;8.764;2023-07-31T09:57:50;19.90;70.70
25953;DHT22;13750;50.804;8.764;2023-07-31T10:00:17;19.90;70.80
25953;DHT22;13750;50.804;8.764;2023-07-31T10:02:45;19.90;70.70
25953;DHT22;13750;50.804;8.764;2023-07-31T10:05:13;19.80;70.90
25953;DHT22;13750;50.804;8.764;2023-07-31T10:07:43;19.80;71.20
25953;DHT22;13750;50.804;8.764;2023-07-31T10:10:10;19.70;71.40
25953;DHT22;13750;50.804;8.764;2023-07-31T10:12:37;19.70;71.30
25953;DHT22;13750;50.804;8.764;2023-07-31T10:15:03;19.70;71.30
25953;DHT22;13750;50.804;8.764;2023-07-31T10:17:30;19.60;71.50
25953;DHT22;13750;50.804;8.764;2023-07-31T10:19:58;19.60;71.40
25953;DHT22;13750;50.804;8.764;2023-07-31T10:22:26;19.60;71.40
25953;DHT22;13750;50.804;8.764;2023-07-31T10:24:54;19.60;71.70
25953;DHT22;13750;50.804;8.764;2023-07-31T10:27:20;19.60;71.90
25953;DHT22;13750;50.804;8.764;2023-07-31T10:29:47;19.60;72.00
25953;DHT22;13750;50.804;8.764;2023-07-31T10:32:14;19.60;72.00
25953;DHT22;13750;50.804;8.764;2023-07-31T10:34:41;19.60;72.30
25953;DHT22;13750;50.804;8.764;2023-07-31T10:37:23;19.60;72.20
25953;DHT22;13750;50.804;8.764;2023-07-31T10:40:06;19.60;72.30
25953;DHT22;13750;50.804;8.764;2023-07-31T10:45:03;19.60;72.60
25953;DHT22;13750;50.804;8.764;2023-07-31T10:47:29;19.60;72.60
25953;DHT22;13750;50.804;8.764;2023-07-31T10:50:21;19.60;72.70
25953;DHT22;13750;50.804;8.764;2023-07-31T10:52:56;19.60;72.90
25953;DHT22;13750;50.804;8.764;2023-07-31T10:55:32;19.60;73.20
25953;DHT22;13750;50.804;8.764;2023-07-31T10:58:19;19.50;73.50
25953;DHT22;13750;50.804;8.764;2023-07-31T11:00:45;19.60;73.90
25953;DHT22;13750;50.804;8.764;2023-07-31T11:03:13;19.60;74.20
25953;DHT22;13750;50.804;8.764;2023-07-31T11:05:47;19.60;74.30
25953;DHT22;13750;50.804;8.764;2023-07-31T11:08:25;19.60;74.50
25953;DHT22;13750;50.804;8.764;2023-07-31T11:11:08;19.60;74.80
25953;DHT22;13750;50.804;8.764;2023-07-31T11:13:44;19.60;75.10
25953;DHT22;13750;50.804;8.764;2023-07-31T11:16:11;19.60;75.40
25953;DHT22;13750;50.804;8.764;2023-07-31T11:18:42;19.50;75.80
25953;DHT22;13750;50.804;8.764;2023-07-31T11:21:12;19.50;76.10
25953;DHT22;13750;50.804;8.764;2023-07-31T11:23:38;19.50;76.20
25953;DHT22;13750;50.804;8.764;2023-07-31T11:26:06;19.60;76.30
25953;DHT22;13750;50.804;8.764;2023-07-31T11:28:33;19.60;76.20
25953;DHT22;13750;50.804;8.764;2023-07-31T11:30:59;19.60;76.10
25953;DHT22;13750;50.804;8.764;2023-07-31T11:33:25;19.60;75.80
25953;DHT22;13750;50.804;8.764;2023-07-31T11:35:51;19.60;75.60
25953;DHT22;13750;50.804;8.764;2023-07-31T11:38:31;19.60;75.40
25953;DHT22;13750;50.804;8.764;2023-07-31T11:40:59;19.60;75.30
25953;DHT22;13750;50.804;8.764;2023-07-31T11:43:25;19.60;75.50
25953;DHT22;13750;50.804;8.764;2023-07-31T11:45:54;19.60;75.50
25953;DHT22;13750;50.804;8.764;2023-07-31T11:48:24;19.60;75.50
25953;DHT22;13750;50.804;8.764;2023-07-31T11:50:51;19.60;75.50
25953;DHT22;13750;50.804;8.764;2023-07-31T11:53:31;19.60;75.50
25953;DHT22;13750;50.804;8.764;2023-07-31T11:56:01;19.70;75.40
25953;DHT22;13750;50.804;8.764;2023-07-31T11:59:06;19.70;75.30
25953;DHT22;13750;50.804;8.764;2023-07-31T12:01:47;19.80;75.30
25953;DHT22;13750;50.804;8.764;2023-07-31T12:04:15;19.80;75.20
25953;DHT22;13750;50.804;8.764;2023-07-31T12:06:41;19.80;75.00
25953;DHT22;13750;50.804;8.764;2023-07-31T12:09:06;19.80;75.10
25953;DHT22;13750;50.804;8.764;2023-07-31T12:11:45;19.80;75.10
25953;DHT22;13750;50.804;8.764;2023-07-31T12:14:27;19.80;75.00
25953;DHT22;13750;50.804;8.764;2023-07-31T12:16:59;19.80;75.00
25953;DHT22;13750;50.804;8.764;2023-07-31T12:19:25;19.90;75.00
25953;DHT22;13750;50.804;8.764;2023-07-31T12:22:01;19.90;75.00
25953;DHT22;13750;50.804;8.764;2023-07-31T12:24:27;19.90;74.90
25953;DHT22;13750;50.804;8.764;2023-07-31T12:26:53;20.00;74.70
25953;DHT22;13750;50.804;8.764;2023-07-31T12:29:20;20.00;74.30
25953;DHT22;13750;50.804;8.764;2023-07-31T12:31:45;20.00;74.10
25953;DHT22;13750;50.804;8.764;2023-07-31T12:34:16;20.10;74.00
25953;DHT22;13750;50.804;8.764;2023-07-31T12:36:42;20.00;74.00
25953;DHT22;13750;50.804;8.764;2023-07-31T12:39:08;20.10;73.90
25953;DHT22;13750;50.804;8.764;2023-07-31T12:41:34;20.10;73.60
25953;DHT22;13750;50.804;8.764;2023-07-31T12:43:59;20.10;73.40
25953;DHT22;13750;50.804;8.764;2023-07-31T12:46:25;20.10;73.10
25953;DHT22;13750;50.804;8.764;2023-07-31T12:48:50;20.20;73.00
25953;DHT22;13750;50.804;8.764;2023-07-31T12:51:16;20.20;72.80
25953;DHT22;13750;50.804;8.764;2023-07-31T12:53:41;20.20;72.50
25953;DHT22;13750;50.804;8.764;2023-07-31T12:56:07;20.20;72.20
25953;DHT22;13750;50.804;8.764;2023-07-31T12:58:32;20.20;72.10
25953;DHT22;13750;50.804;8.764;2023-07-31T13:00:58;20.30;72.10
25953;DHT22;13750;50.804;8.764;2023-07-31T13:03:23;20.30;71.90
25953;DHT22;13750;50.804;8.764;2023-07-31T13:05:50;20.30;71.70
25953;DHT22;13750;50.804;8.764;2023-07-31T13:08:15;20.30;71.40
25953;DHT22;13750;50.804;8.764;2023-07-31T13:10:42;20.40;71.10
25953;DHT22;13750;50.804;8.764;2023-07-31T13:13:09;20.40;70.60
25953;DHT22;13750;50.804;8.764;2023-07-31T13:15:35;20.40;70.50
25953;DHT22;13750;50.804;8.764;2023-07-31T13:18:00;20.40;70.30
25953;DHT22;13750;50.804;8.764;2023-07-31T13:20:26;20.40;69.60
25953;DHT22;13750;50.804;8.764;2023-07-31T13:22:51;20.40;69.70
25953;DHT22;13750;50.804;8.764;2023-07-31T13:25:17;20.40;69.70
25953;DHT22;13750;50.804;8.764;2023-07-31T13:27:42;20.40;69.70
25953;DHT22;13750;50.804;8.764;2023-07-31T13:30:08;20.40;69.90
25953;DHT22;13750;50.804;8.764;2023-07-31T13:32:34;20.40;70.00
25953;DHT22;13750;50.804;8.764;2023-07-31T13:35:07;20.50;69.70
25953;DHT22;13750;50.804;8.764;2023-07-31T13:37:33;20.50;69.60
25953;DHT22;13750;50.804;8.764;2023-07-31T13:39:59;20.60;69.30
25953;DHT22;13750;50.804;8.764;2023-07-31T13:42:25;20.70;69.10
25953;DHT22;13750;50.804;8.764;2023-07-31T13:44:51;20.80;68.70
25953;DHT22;13750;50.804;8.764;2023-07-31T13:47:17;20.90;68.30
25953;DHT22;13750;50.804;8.764;2023-07-31T13:49:43;20.90;68.10
25953;DHT22;13750;50.804;8.764;2023-07-31T13:52:09;21.00;67.90
25953;DHT22;13750;50.804;8.764;2023-07-31T13:54:34;21.10;67.70
25953;DHT22;13750;50.804;8.764;2023-07-31T13:57:00;21.20;67.60
25953;DHT22;13750;50.804;8.764;2023-07-31T13:59:26;21.20;67.30
25953;DHT22;13750;50.804;8.764;2023-07-31T14:01:51;21.20;67.30
25953;DHT22;13750;50.804;8.764;2023-07-31T14:04:17;21.30;67.30
25953;DHT22;13750;50.804;8.764;2023-07-31T14:06:43;21.30;67.10
25953;DHT22;13750;50.804;8.764;2023-07-31T14:09:09;21.40;66.80
25953;DHT22;13750;50.804;8.764;2023-07-31T14:11:34;21.30;66.80
25953;DHT22;13750;50.804;8.764;2023-07-31T14:14:00;21.30;66.70
25953;DHT22;13750;50.804;8.764;2023-07-31T14:16:27;21.30;66.80
25953;DHT22;13750;50.804;8.764;2023-07-31T14:18:53;21.30;66.80
25953;DHT22;13750;50.804;8.764;2023-07-31T14:21:19;21.40;66.90
25953;DHT22;13750;50.804;8.764;2023-07-31T14:23:45;21.40;67.00
25953;DHT22;13750;50.804;8.764;2023-07-31T14:26:11;21.40;67.10
25953;DHT22;13750;50.804;8.764;2023-07-31T14:28:38;21.50;67.00
25953;DHT22;13750;50.804;8.764;2023-07-31T14:31:03;21.50;67.00
25953;DHT22;13750;50.804;8.764;2023-07-31T14:33:29;21.50;66.80
25953;DHT22;13750;50.804;8.764;2023-07-31T14:35:55;21.50;66.90
25953;DHT22;13750;50.804;8.764;2023-07-31T14:38:20;21.50;66.60
25953;DHT22;13750;50.804;8.764;2023-07-31T14:40:46;21.50;66.50
25953;DHT22;13750;50.804;8.764;2023-07-31T14:43:11;21.50;66.40
25953;DHT22;13750;50.804;8.764;2023-07-31T14:45:37;21.50;66.40
25953;DHT22;13750;50.804;8.764;2023-07-31T14:48:03;21.50;66.30
25953;DHT22;13750;50.804;8.764;2023-07-31T14:50:28;21.50;66.20
25953;DHT22;13750;50.804;8.764;2023-07-31T14:52:54;21.50;66.00
25953;DHT22;13750;50.804;8.764;2023-07-31T14:55:20;21.50;65.70
25953;DHT22;13750;50.804;8.764;2023-07-31T14:57:45;21.50;65.60
25953;DHT22;13750;50.804;8.764;2023-07-31T15:00:11;21.40;65.50
25953;DHT22;13750;50.804;8.764;2023-07-31T15:02:37;21.30;65.50
25953;DHT22;13750;50.804;8.764;2023-07-31T15:05:04;21.30;65.50
25953;DHT22;13750;50.804;8.764;2023-07-31T15:07:29;21.20;65.50
25953;DHT22;13750;50.804;8.764;2023-07-31T15:09:55;21.20;65.20
25953;DHT22;13750;50.804;8.764;2023-07-31T15:12:21;21.10;65.40
25953;DHT22;13750;50.804;8.764;2023-07-31T15:14:50;21.10;65.50
25953;DHT22;13750;50.804;8.764;2023-07-31T15:17:17;21.10;65.40
25953;DHT22;13750;50.804;8.764;2023-07-31T15:19:42;21.10;65.50
25953;DHT22;13750;50.804;8.764;2023-07-31T15:22:08;21.10;65.60
25953;DHT22;13750;50.804;8.764;2023-07-31T15:24:34;21.10;65.40
25953;DHT22;13750;50.804;8.764;2023-07-31T15:26:59;21.10;65.30
25953;DHT22;13750;50.804;8.764;2023-07-31T15:29:27;21.00;65.40
25953;DHT22;13750;50.804;8.764;2023-07-31T15:31:52;21.10;65.50
25953;DHT22;13750;50.804;8.764;2023-07-31T15:34:18;21.10;65.60
25953;DHT22;13750;50.804;8.764;2023-07-31T15:36:46;21.10;65.60